createdAt,value
2023-05-06T00:00:13.183Z,85.19
2023-05-06T00:01:44.859Z,85.71
2023-05-06T00:03:17.892Z,87.36
2023-05-06T00:04:49.634Z,88.50
2023-05-06T00:06:21.286Z,86.09
2023-05-06T00:07:52.958Z,86.45
2023-05-06T00:09:24.567Z,86.14
2023-05-06T00:10:56.289Z,86.85
2023-05-06T00:12:28.041Z,86.20
2023-05-06T00:13:59.631Z,86.17
2023-05-06T00:15:32.289Z,85.66
2023-05-06T00:17:03.989Z,86.24
2023-05-06T00:18:36.939Z,87.70
2023-05-06T00:20:10.459Z,86.83
2023-05-06T00:21:42.091Z,85.88
2023-05-06T00:23:13.695Z,86.98
2023-05-06T00:24:45.310Z,86.95
2023-05-06T00:26:16.932Z,85.73
2023-05-06T00:27:48.757Z,85.12
2023-05-06T00:29:20.383Z,85.28
2023-05-06T00:30:51.995Z,86.01
2023-05-06T00:32:23.579Z,84.61
2023-05-06T00:33:56.727Z,84.87
2023-05-06T00:35:28.570Z,85.47
2023-05-06T00:37:00.301Z,85.59
2023-05-06T00:38:31.913Z,86.11
2023-05-06T00:40:04.117Z,85.90
2023-05-06T00:41:35.756Z,86.04
2023-05-06T00:43:07.529Z,87.04
2023-05-06T00:44:39.192Z,86.60
2023-05-06T00:46:11.533Z,86.55
2023-05-06T00:47:43.246Z,86.59
2023-05-06T00:49:16.258Z,85.92
2023-05-06T00:50:47.894Z,86.76
2023-05-06T00:52:19.508Z,86.54
2023-05-06T00:53:51.410Z,87.07
2023-05-06T00:55:23.074Z,87.19
2023-05-06T00:56:54.761Z,87.18
2023-05-06T00:58:26.409Z,85.75
2023-05-06T00:59:58.012Z,86.31
2023-05-06T01:01:30.806Z,87.26
2023-05-06T01:03:02.575Z,87.00
2023-05-06T01:04:36.059Z,86.46
2023-05-06T01:06:11.460Z,86.25
2023-05-06T01:07:46.416Z,85.44
2023-05-06T01:09:20.870Z,86.28
2023-05-06T01:10:53.651Z,87.84
2023-05-06T01:12:29.140Z,87.44
2023-05-06T01:14:02.322Z,89.37
2023-05-06T01:15:35.809Z,89.00
2023-05-06T01:17:09.710Z,86.96
2023-05-06T01:18:41.414Z,86.92
2023-05-06T01:20:15.353Z,86.82
2023-05-06T01:21:47.028Z,87.69
2023-05-06T01:23:20.031Z,87.03
2023-05-06T01:24:51.630Z,86.94
2023-05-06T01:26:23.312Z,89.11
2023-05-06T01:27:54.903Z,87.08
2023-05-06T01:29:26.560Z,87.42
2023-05-06T01:30:59.570Z,87.19
2023-05-06T01:32:41.745Z,87.91
2023-05-06T01:34:15.546Z,87.53
2023-05-06T01:35:52.800Z,86.21
2023-05-06T01:37:28.774Z,86.18
2023-05-06T01:39:08.719Z,87.97
2023-05-06T01:40:40.320Z,87.35
2023-05-06T01:42:12.006Z,86.73
2023-05-06T01:43:44.285Z,86.01
2023-05-06T01:45:16.628Z,87.45
2023-05-06T01:46:48.323Z,91.42
2023-05-06T01:48:20.256Z,87.99
2023-05-06T01:49:52.018Z,87.76
2023-05-06T01:51:23.742Z,90.29
2023-05-06T01:52:59.014Z,88.40
2023-05-06T01:54:32.125Z,87.24
2023-05-06T01:56:04.109Z,89.13
2023-05-06T01:57:35.848Z,87.88
2023-05-06T01:59:07.577Z,88.19
2023-05-06T02:00:39.623Z,89.35
2023-05-06T02:02:11.247Z,87.36
2023-05-06T02:03:42.956Z,87.96
2023-05-06T02:05:14.574Z,89.95
2023-05-06T02:06:46.210Z,88.46
2023-05-06T02:08:17.868Z,87.50
2023-05-06T02:09:50.871Z,87.73
2023-05-06T02:11:22.477Z,87.35
2023-05-06T02:12:54.164Z,89.13
2023-05-06T02:14:25.849Z,89.61
2023-05-06T02:15:57.480Z,87.97
2023-05-06T02:17:29.180Z,87.90
2023-05-06T02:19:00.860Z,88.43
2023-05-06T02:20:32.488Z,87.25
2023-05-06T02:22:04.079Z,88.42
2023-05-06T02:23:35.836Z,87.89
2023-05-06T02:25:09.707Z,88.13
2023-05-06T02:26:41.528Z,88.00
2023-05-06T02:28:13.133Z,89.81
2023-05-06T02:29:44.824Z,90.46
2023-05-06T02:31:16.479Z,88.11
2023-05-06T02:32:48.165Z,89.26
2023-05-06T02:34:19.763Z,87.11
2023-05-06T02:35:51.435Z,87.10
2023-05-06T02:37:23.489Z,88.29
2023-05-06T02:38:55.111Z,88.76
2023-05-06T02:40:28.133Z,89.60
2023-05-06T02:41:59.745Z,89.74
2023-05-06T02:43:31.407Z,87.48
2023-05-06T02:45:03.456Z,87.45
2023-05-06T02:46:35.059Z,87.47
2023-05-06T02:48:06.680Z,87.13
2023-05-06T02:49:38.319Z,87.88
2023-05-06T02:51:09.973Z,87.51
2023-05-06T02:52:41.706Z,86.97
2023-05-06T02:54:13.330Z,88.57
2023-05-06T02:55:46.543Z,88.78
2023-05-06T02:57:18.452Z,87.33
2023-05-06T02:58:50.069Z,87.28
2023-05-06T03:00:21.844Z,87.23
2023-05-06T03:01:53.462Z,86.47
2023-05-06T03:03:25.098Z,86.97
2023-05-06T03:04:56.759Z,88.31
2023-05-06T03:06:28.777Z,86.72
2023-05-06T03:08:00.550Z,87.09
2023-05-06T03:09:32.199Z,87.33
2023-05-06T03:11:07.335Z,87.71
2023-05-06T03:12:39.852Z,87.53
2023-05-06T03:14:22.046Z,88.68
2023-05-06T03:15:56.552Z,91.10
2023-05-06T03:17:28.214Z,89.26
2023-05-06T03:19:00.204Z,88.48
2023-05-06T03:20:31.925Z,89.79
2023-05-06T03:22:03.556Z,88.00
2023-05-06T03:23:35.149Z,87.98
2023-05-06T03:25:07.685Z,88.01
2023-05-06T03:26:41.159Z,87.47
2023-05-06T03:28:12.831Z,87.25
2023-05-06T03:29:44.426Z,87.71
2023-05-06T03:31:16.135Z,89.80
2023-05-06T03:32:48.628Z,88.39
2023-05-06T03:34:20.365Z,88.67
2023-05-06T03:35:52.169Z,87.63
2023-05-06T03:37:23.904Z,87.41
2023-05-06T03:38:55.480Z,88.04
2023-05-06T03:40:27.550Z,89.13
2023-05-06T03:42:01.034Z,88.80
2023-05-06T03:43:32.855Z,90.11
2023-05-06T03:45:06.485Z,88.37
2023-05-06T03:46:39.168Z,87.71
2023-05-06T03:48:10.879Z,88.26
2023-05-06T03:49:42.508Z,87.87
2023-05-06T03:51:14.114Z,88.27
2023-05-06T03:52:45.744Z,87.82
2023-05-06T03:54:17.366Z,87.83
2023-05-06T03:55:49.009Z,88.48
2023-05-06T03:57:22.169Z,90.51
2023-05-06T03:58:56.962Z,90.10
2023-05-06T04:00:28.636Z,89.34
2023-05-06T04:02:00.415Z,89.17
2023-05-06T04:03:32.179Z,87.84
2023-05-06T04:05:04.375Z,90.55
2023-05-06T04:06:36.099Z,87.47
2023-05-06T04:08:07.806Z,87.12
2023-05-06T04:09:39.434Z,88.43
2023-05-06T04:11:11.496Z,88.50
2023-05-06T04:12:44.519Z,88.12
2023-05-06T04:14:16.149Z,87.84
2023-05-06T04:15:48.757Z,86.73
2023-05-06T04:17:20.426Z,87.34
2023-05-06T04:18:52.792Z,87.80
2023-05-06T04:20:24.423Z,88.69
2023-05-06T04:21:56.534Z,88.99
2023-05-06T04:23:28.359Z,87.95
2023-05-06T04:25:02.678Z,87.82
2023-05-06T04:26:34.719Z,87.18
2023-05-06T04:28:08.809Z,87.82
2023-05-06T04:29:40.476Z,88.51
2023-05-06T04:31:14.415Z,87.93
2023-05-06T04:32:46.685Z,89.68
2023-05-06T04:34:18.332Z,88.37
2023-05-06T04:35:50.550Z,88.48
2023-05-06T04:37:22.440Z,88.73
2023-05-06T04:38:54.060Z,88.95
2023-05-06T04:40:27.511Z,88.83
2023-05-06T04:41:59.194Z,88.23
2023-05-06T04:43:32.822Z,88.94
2023-05-06T04:45:05.546Z,88.15
2023-05-06T04:46:37.182Z,90.67
2023-05-06T04:48:09.755Z,88.74
2023-05-06T04:49:41.664Z,88.90
2023-05-06T04:51:13.354Z,87.34
2023-05-06T04:52:45.116Z,87.34
2023-05-06T04:54:16.740Z,88.28
2023-05-06T04:55:48.361Z,89.31
2023-05-06T04:57:19.970Z,91.39
2023-05-06T04:58:52.910Z,88.33
2023-05-06T05:00:26.253Z,88.61
2023-05-06T05:01:57.835Z,90.08
2023-05-06T05:03:29.520Z,88.81
2023-05-06T05:05:01.277Z,88.22
2023-05-06T05:06:33.470Z,88.46
2023-05-06T05:08:05.828Z,90.14
2023-05-06T05:09:37.522Z,91.87
2023-05-06T05:11:09.221Z,89.12
2023-05-06T05:12:40.934Z,89.33
2023-05-06T05:14:14.022Z,92.60
2023-05-06T05:15:45.647Z,91.57
2023-05-06T05:17:17.629Z,88.62
2023-05-06T05:18:49.284Z,89.94
2023-05-06T05:20:21.240Z,90.11
2023-05-06T05:21:52.842Z,91.15
2023-05-06T05:23:24.468Z,93.42
2023-05-06T05:24:56.099Z,94.58
2023-05-06T05:26:27.975Z,92.41
2023-05-06T05:27:59.610Z,91.90
2023-05-06T05:29:32.868Z,90.38
2023-05-06T05:31:04.664Z,90.06
2023-05-06T05:32:36.415Z,90.96
2023-05-06T05:34:08.204Z,89.80
2023-05-06T05:35:39.831Z,89.02
2023-05-06T05:37:11.573Z,88.37
2023-05-06T05:38:43.286Z,89.60
2023-05-06T05:40:14.931Z,90.71
2023-05-06T05:41:46.741Z,90.50
2023-05-06T05:43:19.235Z,89.55
2023-05-06T05:44:52.201Z,90.89
2023-05-06T05:46:23.973Z,87.99
2023-05-06T05:47:55.784Z,90.67
2023-05-06T05:49:27.658Z,91.60
2023-05-06T05:51:00.047Z,89.10
2023-05-06T05:52:31.689Z,89.66
2023-05-06T05:54:03.466Z,89.87
2023-05-06T05:55:35.105Z,91.49
2023-05-06T05:57:06.716Z,90.49
2023-05-06T05:58:38.621Z,91.18
2023-05-06T06:00:13.611Z,91.87
2023-05-06T06:01:45.493Z,92.73
2023-05-06T06:03:17.828Z,92.32
2023-05-06T06:04:49.767Z,90.43
2023-05-06T06:06:21.422Z,91.51
2023-05-06T06:07:53.152Z,91.32
2023-05-06T06:09:24.841Z,91.39
2023-05-06T06:10:56.569Z,91.49
2023-05-06T06:12:28.188Z,92.29
2023-05-06T06:13:59.837Z,92.09
2023-05-06T06:15:32.796Z,92.21
2023-05-06T06:17:04.542Z,92.55
2023-05-06T06:18:36.316Z,92.14
2023-05-06T06:20:09.103Z,93.31
2023-05-06T06:21:40.771Z,92.32
2023-05-06T06:23:12.454Z,93.37
2023-05-06T06:24:46.921Z,90.43
2023-05-06T06:26:18.598Z,90.72
2023-05-06T06:27:50.405Z,91.54
2023-05-06T06:29:22.032Z,89.89
2023-05-06T06:30:55.077Z,89.67
2023-05-06T06:32:26.721Z,90.40
2023-05-06T06:33:58.663Z,90.95
2023-05-06T06:35:30.414Z,92.36
2023-05-06T06:37:02.264Z,91.00
2023-05-06T06:38:33.958Z,92.16
2023-05-06T06:40:07.016Z,91.14
2023-05-06T06:41:38.674Z,91.37
2023-05-06T06:43:10.359Z,90.85
2023-05-06T06:44:42.031Z,90.74
2023-05-06T06:46:15.078Z,92.34
2023-05-06T06:47:46.770Z,91.43
2023-05-06T06:49:18.395Z,91.05
2023-05-06T06:50:50.308Z,91.79
2023-05-06T06:52:21.941Z,90.76
2023-05-06T06:53:53.590Z,91.68
2023-05-06T06:55:25.320Z,92.23
2023-05-06T06:56:57.426Z,91.58
2023-05-06T06:58:29.047Z,90.40
2023-05-06T07:00:00.644Z,89.10
2023-05-06T07:01:33.789Z,88.48
2023-05-06T07:03:05.820Z,89.98
2023-05-06T07:04:37.538Z,90.32
2023-05-06T07:06:09.170Z,89.56
2023-05-06T07:07:40.836Z,89.22
2023-05-06T07:09:13.330Z,89.23
2023-05-06T07:10:44.941Z,88.42
2023-05-06T07:12:16.576Z,87.71
2023-05-06T07:13:48.224Z,87.63
2023-05-06T07:15:19.996Z,88.92
2023-05-06T07:16:53.021Z,87.57
2023-05-06T07:18:24.787Z,86.97
2023-05-06T07:19:56.412Z,86.72
2023-05-06T07:21:28.177Z,86.54
2023-05-06T07:22:59.857Z,87.21
2023-05-06T07:24:31.563Z,87.89
2023-05-06T07:26:03.184Z,87.13
2023-05-06T07:27:34.913Z,85.91
2023-05-06T07:29:06.563Z,85.17
2023-05-06T07:30:38.607Z,86.20
2023-05-06T07:32:11.645Z,85.65
2023-05-06T07:33:43.380Z,84.97
2023-05-06T07:35:15.004Z,84.15
2023-05-06T07:36:46.604Z,82.19
2023-05-06T07:38:20.699Z,84.09
2023-05-06T07:39:52.474Z,83.08
2023-05-06T07:41:24.095Z,82.70
2023-05-06T07:42:55.796Z,82.66
2023-05-06T07:44:27.407Z,83.45
2023-05-06T07:46:02.934Z,84.52
2023-05-06T07:47:36.550Z,84.94
2023-05-06T07:49:08.284Z,86.13
2023-05-06T07:50:39.916Z,88.38
2023-05-06T07:52:11.558Z,88.33
2023-05-06T07:53:43.266Z,86.86
2023-05-06T07:55:15.202Z,86.09
2023-05-06T07:56:46.816Z,85.47
2023-05-06T07:58:18.495Z,84.53
2023-05-06T07:59:52.337Z,84.26
2023-05-06T08:01:24.020Z,85.97
2023-05-06T08:02:57.123Z,85.76
2023-05-06T08:04:28.838Z,83.75
2023-05-06T08:06:00.642Z,84.22
2023-05-06T08:07:35.287Z,84.79
2023-05-06T08:09:06.938Z,84.17
2023-05-06T08:10:38.591Z,84.23
2023-05-06T08:12:10.606Z,82.12
2023-05-06T08:13:42.334Z,82.41
2023-05-06T08:15:14.060Z,81.41
2023-05-06T08:16:45.912Z,81.15
2023-05-06T08:18:22.863Z,80.09
2023-05-06T08:19:55.553Z,81.07
2023-05-06T08:21:27.748Z,79.13
2023-05-06T08:23:00.986Z,79.03
2023-05-06T08:24:32.640Z,78.49
2023-05-06T08:26:04.426Z,78.40
2023-05-06T08:27:36.269Z,78.50
2023-05-06T08:29:08.154Z,77.38
2023-05-06T08:30:39.817Z,77.24
2023-05-06T08:32:11.438Z,75.09
2023-05-06T08:33:44.463Z,75.17
2023-05-06T08:35:16.175Z,75.90
2023-05-06T08:36:48.225Z,76.36
2023-05-06T08:38:19.851Z,76.26
2023-05-06T08:39:51.503Z,76.58
2023-05-06T08:41:23.452Z,76.68
2023-05-06T08:42:55.537Z,75.18
2023-05-06T08:44:27.385Z,76.15
2023-05-06T08:45:59.128Z,76.80
2023-05-06T08:47:30.761Z,76.99
2023-05-06T08:49:03.820Z,77.29
2023-05-06T08:50:35.588Z,78.17
2023-05-06T08:52:07.274Z,78.71
2023-05-06T08:53:38.893Z,78.74
2023-05-06T08:55:10.708Z,76.20
2023-05-06T08:56:45.189Z,77.51
2023-05-06T08:58:16.930Z,75.86
2023-05-06T08:59:48.633Z,76.68
2023-05-06T09:01:20.565Z,75.55
2023-05-06T09:02:52.728Z,73.94
2023-05-06T09:04:25.982Z,75.71
2023-05-06T09:05:57.999Z,75.50
2023-05-06T09:07:29.592Z,75.31
2023-05-06T09:09:01.396Z,75.38
2023-05-06T09:10:33.532Z,76.52
2023-05-06T09:12:09.592Z,74.46
2023-05-06T09:13:41.238Z,75.98
2023-05-06T09:15:13.143Z,73.55
2023-05-06T09:16:45.585Z,75.74
2023-05-06T09:18:17.285Z,75.94
2023-05-06T09:19:51.756Z,73.92
2023-05-06T09:21:38.272Z,71.78
2023-05-06T09:23:10.328Z,74.81
2023-05-06T09:24:41.986Z,74.17
2023-05-06T09:26:13.693Z,74.70
2023-05-06T09:27:45.307Z,73.22
2023-05-06T09:29:16.972Z,74.68
2023-05-06T09:30:48.687Z,72.57
2023-05-06T09:32:20.349Z,71.00
2023-05-06T09:33:52.007Z,72.70
2023-05-06T09:35:28.985Z,71.97
2023-05-06T09:37:01.043Z,70.27
2023-05-06T09:38:32.701Z,74.20
2023-05-06T09:40:05.240Z,74.82
2023-05-06T09:41:36.853Z,73.85
2023-05-06T09:43:09.985Z,72.48
2023-05-06T09:44:41.658Z,69.92
2023-05-06T09:46:13.438Z,71.73
2023-05-06T09:47:45.950Z,69.96
2023-05-06T09:49:17.572Z,69.39
2023-05-06T09:50:50.562Z,69.48
2023-05-06T09:52:23.207Z,69.87
2023-05-06T09:53:54.970Z,70.60
2023-05-06T09:55:27.206Z,69.12
2023-05-06T09:57:00.898Z,68.37
2023-05-06T09:58:33.391Z,69.48
2023-05-06T10:00:07.230Z,69.71
2023-05-06T10:01:38.892Z,65.74
2023-05-06T10:03:11.781Z,67.03
2023-05-06T10:04:44.678Z,67.87
2023-05-06T10:06:17.906Z,65.52
2023-05-06T10:07:49.863Z,68.12
2023-05-06T10:09:21.713Z,67.43
2023-05-06T10:10:53.574Z,67.97
2023-05-06T10:12:25.635Z,68.69
2023-05-06T10:13:57.212Z,68.52
2023-05-06T10:15:28.889Z,68.96
2023-05-06T10:17:00.542Z,68.77
2023-05-06T10:18:32.130Z,69.80
2023-05-06T10:20:04.822Z,68.90
2023-05-06T10:21:39.522Z,69.23
2023-05-06T10:23:14.025Z,71.05
2023-05-06T10:24:47.504Z,71.14
2023-05-06T10:26:19.807Z,70.16
2023-05-06T10:27:51.475Z,69.56
2023-05-06T10:29:23.470Z,68.81
2023-05-06T10:30:55.195Z,68.36
2023-05-06T10:32:27.581Z,66.11
2023-05-06T10:34:00.575Z,67.81
2023-05-06T10:35:36.394Z,70.94
2023-05-06T10:37:09.341Z,73.49
2023-05-06T10:38:42.617Z,73.31
2023-05-06T10:40:14.230Z,70.77
2023-05-06T10:41:45.924Z,70.88
2023-05-06T10:43:24.731Z,69.11
2023-05-06T10:44:56.903Z,70.52
2023-05-06T10:46:29.165Z,67.80
2023-05-06T10:48:08.683Z,64.96
2023-05-06T10:49:40.394Z,65.65
2023-05-06T10:51:21.942Z,66.50
2023-05-06T10:52:55.684Z,65.20
2023-05-06T10:54:27.392Z,68.35
2023-05-06T10:56:07.253Z,67.83
2023-05-06T10:57:40.891Z,65.25
2023-05-06T10:59:12.815Z,65.98
2023-05-06T11:00:53.473Z,64.16
2023-05-06T11:02:25.503Z,63.33
2023-05-06T11:03:57.438Z,62.86
2023-05-06T11:05:29.062Z,63.99
2023-05-06T11:07:07.365Z,63.15
2023-05-06T11:08:40.402Z,63.17
2023-05-06T11:10:12.216Z,64.21
2023-05-06T11:11:47.984Z,63.31
2023-05-06T11:13:23.966Z,63.32
2023-05-06T11:14:55.758Z,63.14
2023-05-06T11:16:48.484Z,62.35
2023-05-06T11:18:42.368Z,62.90
2023-05-06T11:20:21.299Z,60.80
2023-05-06T11:21:53.338Z,59.58
2023-05-06T11:23:37.540Z,60.75
2023-05-06T11:25:10.553Z,61.21
2023-05-06T11:26:42.564Z,62.14
2023-05-06T11:28:15.882Z,61.69
2023-05-06T11:29:47.670Z,61.94
2023-05-06T11:31:19.537Z,62.86
2023-05-06T11:32:51.313Z,61.62
2023-05-06T11:34:24.932Z,62.06
2023-05-06T11:35:56.562Z,62.17
2023-05-06T11:37:28.801Z,62.52
2023-05-06T11:39:07.744Z,60.91
2023-05-06T11:40:42.912Z,61.74
2023-05-06T11:42:15.826Z,60.99
2023-05-06T11:43:47.664Z,59.19
2023-05-06T11:45:20.108Z,59.67
2023-05-06T11:46:52.449Z,59.15
2023-05-06T11:48:24.090Z,62.05
2023-05-06T11:49:59.024Z,61.24
2023-05-06T11:51:33.627Z,60.88
2023-05-06T11:53:05.386Z,61.66
2023-05-06T11:54:38.791Z,61.99
2023-05-06T11:56:12.157Z,63.42
2023-05-06T11:57:44.987Z,61.75
2023-05-06T11:59:19.743Z,61.40
2023-05-06T12:00:53.477Z,62.63
2023-05-06T12:02:25.183Z,61.60
2023-05-06T12:03:57.126Z,62.64
2023-05-06T12:05:31.122Z,63.13
2023-05-06T12:07:02.877Z,64.15
2023-05-06T12:08:35.186Z,63.60
2023-05-06T12:10:08.548Z,64.71
2023-05-06T12:11:44.336Z,66.40
2023-05-06T12:13:19.273Z,65.33
2023-05-06T12:14:50.999Z,66.22
2023-05-06T12:16:23.762Z,65.51
2023-05-06T12:17:55.549Z,64.27
2023-05-06T12:19:28.316Z,63.94
2023-05-06T12:21:02.513Z,63.75
2023-05-06T12:22:34.155Z,63.10
2023-05-06T12:24:06.360Z,63.73
2023-05-06T12:25:38.151Z,63.29
2023-05-06T12:27:11.179Z,62.68
2023-05-06T12:29:07.478Z,60.51
2023-05-06T12:30:39.369Z,56.44
2023-05-06T12:32:11.458Z,57.31
2023-05-06T12:33:46.526Z,56.03
2023-05-06T12:35:25.126Z,56.47
2023-05-06T12:36:56.763Z,55.64
2023-05-06T12:38:28.330Z,57.14
2023-05-06T12:39:59.982Z,58.34
2023-05-06T12:41:37.338Z,57.97
2023-05-06T12:43:10.561Z,56.25
2023-05-06T12:44:42.226Z,57.29
2023-05-06T12:46:14.905Z,57.88
2023-05-06T12:47:53.641Z,56.97
2023-05-06T12:49:25.870Z,55.40
2023-05-06T12:50:57.575Z,55.85
2023-05-06T12:52:30.106Z,57.08
2023-05-06T12:54:01.916Z,55.14
2023-05-06T12:55:33.679Z,55.25
2023-05-06T12:57:05.351Z,57.10
2023-05-06T12:58:39.641Z,56.12
2023-05-06T13:00:12.850Z,56.21
2023-05-06T13:01:44.598Z,55.32
2023-05-06T13:03:16.444Z,56.43
2023-05-06T13:04:49.064Z,54.21
2023-05-06T13:06:20.785Z,57.22
2023-05-06T13:07:53.963Z,58.07
2023-05-06T13:09:25.977Z,56.87
2023-05-06T13:10:59.614Z,56.57
2023-05-06T13:12:31.281Z,53.92
2023-05-06T13:14:04.235Z,53.01
2023-05-06T13:15:36.448Z,53.32
2023-05-06T13:17:08.285Z,54.25
2023-05-06T13:18:39.912Z,52.71
2023-05-06T13:20:13.668Z,54.27
2023-05-06T13:21:46.416Z,55.24
2023-05-06T13:23:19.349Z,53.76
2023-05-06T13:24:51.039Z,53.86
2023-05-06T13:26:22.685Z,53.86
2023-05-06T13:27:54.365Z,52.42
2023-05-06T13:29:27.567Z,54.72
2023-05-06T13:30:59.323Z,55.25
2023-05-06T13:32:31.140Z,55.54
2023-05-06T13:34:02.827Z,53.20
2023-05-06T13:35:34.480Z,51.42
2023-05-06T13:37:06.357Z,51.51
2023-05-06T13:38:37.994Z,51.79
2023-05-06T13:40:10.928Z,52.32
2023-05-06T13:41:42.843Z,52.79
2023-05-06T13:43:15.663Z,53.58
2023-05-06T13:44:48.616Z,50.99
2023-05-06T13:46:20.358Z,50.27
2023-05-06T13:47:52.052Z,48.37
2023-05-06T13:49:23.691Z,52.00
2023-05-06T13:50:55.338Z,55.90
2023-05-06T13:52:27.158Z,55.61
2023-05-06T13:53:58.771Z,52.73
2023-05-06T13:55:30.462Z,54.43
2023-05-06T13:57:02.807Z,52.17
2023-05-06T13:58:34.571Z,53.42
2023-05-06T14:00:10.865Z,51.87
2023-05-06T14:01:42.598Z,49.52
2023-05-06T14:03:14.252Z,50.30
2023-05-06T14:04:46.053Z,49.87
2023-05-06T14:06:17.708Z,44.80
2023-05-06T14:07:49.280Z,43.09
2023-05-06T14:09:20.937Z,43.87
2023-05-06T14:10:52.583Z,45.60
2023-05-06T14:12:24.727Z,45.92
2023-05-06T14:13:57.247Z,42.07
2023-05-06T14:15:30.174Z,45.19
2023-05-06T14:17:01.743Z,44.05
2023-05-06T14:18:33.649Z,43.56
2023-05-06T14:20:06.668Z,42.77
2023-05-06T14:21:38.312Z,43.15
2023-05-06T14:23:09.906Z,43.21
2023-05-06T14:24:41.488Z,44.84
2023-05-06T14:26:14.127Z,45.58
2023-05-06T14:27:46.020Z,44.58
2023-05-06T14:29:17.680Z,41.70
2023-05-06T14:30:51.639Z,40.95
2023-05-06T14:32:23.308Z,43.39
2023-05-06T14:34:08.595Z,42.31
2023-05-06T14:35:40.973Z,41.57
2023-05-06T14:37:12.631Z,42.56
2023-05-06T14:38:44.202Z,43.83
2023-05-06T14:40:16.010Z,43.02
2023-05-06T14:41:47.662Z,41.82
2023-05-06T14:43:19.251Z,44.50
2023-05-06T14:44:50.942Z,42.27
2023-05-06T14:46:25.345Z,41.11
2023-05-06T14:47:58.163Z,43.50
2023-05-06T14:49:29.891Z,42.29
2023-05-06T14:51:01.528Z,42.70
2023-05-06T14:52:33.124Z,44.17
2023-05-06T14:54:04.906Z,45.04
2023-05-06T14:55:37.475Z,46.06
2023-05-06T14:57:09.212Z,45.98
2023-05-06T14:58:41.363Z,46.26
2023-05-06T15:00:14.950Z,46.22
2023-05-06T15:01:48.322Z,45.40
2023-05-06T15:03:20.028Z,45.78
2023-05-06T15:04:51.941Z,42.46
2023-05-06T15:06:23.779Z,43.05
2023-05-06T15:07:55.553Z,43.51
2023-05-06T15:09:27.290Z,45.35
2023-05-06T15:10:58.958Z,46.30
2023-05-06T15:12:30.571Z,47.06
2023-05-06T15:14:02.306Z,46.92
2023-05-06T15:15:33.937Z,44.17
2023-05-06T15:17:07.022Z,44.18
2023-05-06T15:18:41.702Z,43.72
2023-05-06T15:20:13.457Z,45.79
2023-05-06T15:21:45.076Z,46.39
2023-05-06T15:23:16.763Z,47.88
2023-05-06T15:24:48.730Z,46.60
2023-05-06T15:26:21.461Z,46.38
2023-05-06T15:27:54.101Z,44.27
2023-05-06T15:29:26.212Z,44.90
2023-05-06T15:30:58.393Z,46.29
2023-05-06T15:32:33.477Z,44.73
2023-05-06T15:34:05.765Z,45.84
2023-05-06T15:35:37.365Z,46.75
2023-05-06T15:37:10.358Z,45.74
2023-05-06T15:38:57.138Z,45.98
2023-05-06T15:40:31.140Z,46.15
2023-05-06T15:42:02.811Z,46.52
2023-05-06T15:43:37.953Z,45.96
2023-05-06T15:45:12.197Z,45.76
2023-05-06T15:46:43.952Z,46.12
2023-05-06T15:48:16.975Z,46.37
2023-05-06T15:49:54.444Z,48.63
2023-05-06T15:51:26.588Z,46.97
2023-05-06T15:52:58.182Z,47.58
2023-05-06T15:54:31.556Z,49.02
2023-05-06T15:56:13.039Z,47.91
2023-05-06T15:57:48.244Z,49.17
2023-05-06T15:59:19.892Z,49.65
2023-05-06T16:00:51.536Z,48.22
2023-05-06T16:02:27.166Z,48.27
2023-05-06T16:04:00.638Z,47.42
2023-05-06T16:05:32.415Z,47.55
2023-05-06T16:07:04.021Z,48.00
2023-05-06T16:08:35.735Z,48.05
2023-05-06T16:10:08.392Z,46.79
2023-05-06T16:11:40.084Z,45.57
2023-05-06T16:13:11.754Z,47.21
2023-05-06T16:14:44.186Z,47.74
2023-05-06T16:16:16.121Z,47.93
2023-05-06T16:17:47.806Z,46.73
2023-05-06T16:19:21.044Z,45.86
2023-05-06T16:20:54.356Z,45.91
2023-05-06T16:22:26.214Z,46.01
2023-05-06T16:23:57.892Z,46.37
2023-05-06T16:25:29.572Z,47.72
2023-05-06T16:27:01.788Z,47.00
2023-05-06T16:28:33.590Z,47.50
2023-05-06T16:30:06.419Z,44.63
2023-05-06T16:31:38.337Z,44.21
2023-05-06T16:33:10.851Z,45.59
2023-05-06T16:34:43.989Z,47.06
2023-05-06T16:36:17.518Z,47.20
2023-05-06T16:37:49.307Z,48.59
2023-05-06T16:39:20.935Z,48.16
2023-05-06T16:40:52.580Z,47.71
2023-05-06T16:42:24.293Z,48.98
2023-05-06T16:43:56.039Z,47.74
2023-05-06T16:45:27.785Z,48.39
2023-05-06T16:46:59.462Z,46.70
2023-05-06T16:48:31.184Z,46.50
2023-05-06T16:50:07.584Z,48.44
2023-05-06T16:51:54.532Z,49.87
2023-05-06T16:53:27.794Z,49.69
2023-05-06T16:55:04.986Z,48.15
2023-05-06T16:56:48.065Z,48.93
2023-05-06T16:58:23.702Z,50.74
2023-05-06T16:59:55.617Z,49.79
2023-05-06T17:01:27.424Z,51.03
2023-05-06T17:02:59.265Z,51.66
2023-05-06T17:04:31.053Z,51.32
2023-05-06T17:06:04.309Z,51.02
2023-05-06T17:07:36.024Z,50.96
2023-05-06T17:09:07.795Z,49.76
2023-05-06T17:10:39.485Z,51.32
2023-05-06T17:12:11.193Z,50.33
2023-05-06T17:13:42.791Z,50.37
2023-05-06T17:15:14.555Z,50.49
2023-05-06T17:16:47.029Z,51.06
2023-05-06T17:18:18.671Z,52.72
2023-05-06T17:19:50.500Z,52.09
2023-05-06T17:21:23.780Z,49.40
2023-05-06T17:22:55.477Z,50.62
2023-05-06T17:24:27.244Z,50.70
2023-05-06T17:25:59.102Z,50.42
2023-05-06T17:27:30.774Z,51.37
2023-05-06T17:29:02.605Z,50.89
2023-05-06T17:30:34.476Z,51.29
2023-05-06T17:32:06.311Z,51.09
2023-05-06T17:33:37.950Z,53.21
2023-05-06T17:35:10.268Z,52.60
2023-05-06T17:36:43.488Z,50.98
2023-05-06T17:38:16.797Z,49.77
2023-05-06T17:39:48.432Z,52.41
2023-05-06T17:41:20.051Z,51.52
2023-05-06T17:42:51.805Z,49.28
2023-05-06T17:44:23.408Z,53.19
2023-05-06T17:45:55.224Z,54.25
2023-05-06T17:47:29.939Z,54.61
2023-05-06T17:49:01.789Z,55.68
2023-05-06T17:50:33.729Z,57.81
2023-05-06T17:52:06.778Z,56.84
2023-05-06T17:53:38.716Z,57.59
2023-05-06T17:55:16.311Z,59.30
2023-05-06T17:56:52.913Z,58.97
2023-05-06T17:58:24.635Z,59.10
2023-05-06T17:59:56.274Z,61.24
2023-05-06T18:01:27.928Z,61.95
2023-05-06T18:02:59.723Z,61.05
2023-05-06T18:04:31.434Z,62.14
2023-05-06T18:06:03.238Z,60.90
2023-05-06T18:07:36.343Z,62.05
2023-05-06T18:09:08.434Z,60.57
2023-05-06T18:10:41.296Z,61.16
2023-05-06T18:12:13.313Z,61.84
2023-05-06T18:13:44.948Z,62.41
2023-05-06T18:15:16.658Z,63.39
2023-05-06T18:16:48.333Z,63.86
2023-05-06T18:18:20.016Z,63.78
2023-05-06T18:19:52.425Z,63.59
2023-05-06T18:21:24.059Z,64.06
2023-05-06T18:22:58.173Z,64.30
2023-05-06T18:24:29.854Z,65.42
2023-05-06T18:26:03.555Z,65.70
2023-05-06T18:27:35.180Z,65.47
2023-05-06T18:29:06.980Z,65.39
2023-05-06T18:30:38.649Z,66.35
2023-05-06T18:32:10.390Z,67.26
2023-05-06T18:33:42.077Z,68.00
2023-05-06T18:35:13.847Z,67.96
2023-05-06T18:36:45.664Z,67.09
2023-05-06T18:38:18.770Z,67.10
2023-05-06T18:39:51.457Z,69.12
2023-05-06T18:41:23.120Z,68.27
2023-05-06T18:42:56.574Z,68.18
2023-05-06T18:44:28.296Z,66.32
2023-05-06T18:46:00.047Z,67.15
2023-05-06T18:47:32.493Z,66.03
2023-05-06T18:49:04.166Z,66.77
2023-05-06T18:50:46.307Z,67.32
2023-05-06T18:52:18.195Z,66.11
2023-05-06T18:53:51.238Z,66.46
2023-05-06T18:55:23.079Z,66.07
2023-05-06T18:56:54.910Z,66.27
2023-05-06T18:58:26.746Z,66.02
2023-05-06T18:59:58.374Z,66.66
2023-05-06T19:01:30.279Z,67.24
2023-05-06T19:03:02.540Z,66.83
2023-05-06T19:04:34.376Z,66.71
2023-05-06T19:06:09.087Z,67.25
2023-05-06T19:07:40.745Z,68.20
2023-05-06T19:09:14.126Z,68.35
2023-05-06T19:10:46.268Z,67.91
2023-05-06T19:12:18.374Z,68.15
2023-05-06T19:13:50.079Z,68.15
2023-05-06T19:15:22.342Z,68.60
2023-05-06T19:16:57.271Z,68.59
2023-05-06T19:18:39.825Z,68.28
2023-05-06T19:20:12.019Z,67.93
2023-05-06T19:21:44.242Z,67.88
2023-05-06T19:23:15.958Z,68.18
2023-05-06T19:24:49.133Z,67.98
2023-05-06T19:26:21.219Z,67.71
2023-05-06T19:27:54.702Z,68.27
2023-05-06T19:29:26.551Z,69.13
2023-05-06T19:30:58.301Z,68.47
2023-05-06T19:32:31.508Z,68.28
2023-05-06T19:34:14.336Z,67.43
2023-05-06T19:35:48.774Z,69.26
2023-05-06T19:37:20.489Z,68.33
2023-05-06T19:38:52.221Z,68.49
2023-05-06T19:40:25.586Z,67.84
2023-05-06T19:41:57.406Z,68.01
2023-05-06T19:43:29.178Z,67.94
2023-05-06T19:45:06.605Z,68.73
2023-05-06T19:46:38.366Z,68.75
2023-05-06T19:48:10.091Z,67.47
2023-05-06T19:49:44.675Z,67.86
2023-05-06T19:51:16.506Z,68.52
2023-05-06T19:52:48.204Z,67.99